Time;durP1;ratioP1;P1;durP2;ratioP2;P2;SDS_P1;SDS_P2;PMS_P1;PMS_P2;Temp;Humidity;BMP_temperature;BMP_pressure;BME280_temperature;BME280_humidity;BME280_pressure;Samples;Min_cycle;Max_cycle;Signal;HPM_P1;HPM_P2
2021/08/31 20:19:10;;;;;;;;;6.50;6.50;;;;;;;;5098053;27;112082;-75
2021/08/31 20:21:35;;;;;;;;;10.50;9.00;;;;;;;;5075310;27;112251;-74
2021/08/31 20:24:00;;;;;;;;;8.00;7.75;;;;;;;;5058532;27;113215;-75
2021/08/31 20:26:26;;;;;;;;;8.00;8.00;;;;;;;;5058609;27;113352;-75
2021/08/31 20:28:51;;;;;;;;;10.00;8.25;;;;;;;;5070174;27;116050;-74
2021/08/31 20:31:16;;;;;;;;;9.50;9.50;;;;;;;;5079501;27;111908;-74
2021/08/31 20:33:42;;;;;;;;;8.50;8.50;;;;;;;;5077625;27;114510;-74
2021/08/31 20:36:07;;;;;;;;;9.50;9.50;;;;;;;;5076420;27;115917;-75
2021/08/31 20:38:32;;;;;;;;;8.75;8.50;;;;;;;;5083046;27;111787;-75
2021/08/31 20:40:57;;;;;;;;;6.50;6.50;;;;;;;;5077928;27;112625;-74
2021/08/31 20:43:23;;;;;;;;;9.00;8.00;;;;;;;;5079012;27;111695;-74
2021/08/31 20:45:48;;;;;;;;;9.25;7.25;;;;;;;;5078762;27;111983;-74
2021/08/31 20:48:13;;;;;;;;;9.75;7.75;;;;;;;;5076857;27;112243;-74
2021/08/31 20:50:39;;;;;;;;;9.00;9.00;;;;;;;;5078801;27;111765;-76
2021/08/31 20:53:04;;;;;;;;;10.00;7.75;;;;;;;;5064383;27;112539;-75
2021/08/31 20:55:29;;;;;;;;;9.00;8.25;;;;;;;;5056552;27;112274;-74
2021/08/31 20:57:54;;;;;;;;;7.00;7.00;;;;;;;;5056972;27;111939;-74
2021/08/31 21:00:20;;;;;;;;;7.75;7.75;;;;;;;;5060430;27;113007;-74
2021/08/31 21:02:45;;;;;;;;;6.25;6.25;;;;;;;;5058311;27;111992;-74
2021/08/31 21:05:10;;;;;;;;;8.00;8.00;;;;;;;;5058108;27;112381;-74
2021/08/31 21:07:36;;;;;;;;;9.00;8.00;;;;;;;;5056655;27;112291;-74
2021/08/31 21:10:04;;;;;;;;;8.00;8.00;;;;;;;;5058288;27;111755;-74
2021/08/31 21:12:29;;;;;;;;;7.50;7.50;;;;;;;;5057774;27;112049;-73
2021/08/31 21:14:55;;;;;;;;;7.25;7.00;;;;;;;;5056169;27;112348;-73
2021/08/31 21:17:20;;;;;;;;;7.00;7.00;;;;;;;;5057819;27;111817;-74
2021/08/31 21:19:45;;;;;;;;;6.75;6.75;;;;;;;;5056664;27;114418;-74
2021/08/31 21:22:10;;;;;;;;;11.75;8.00;;;;;;;;5060727;27;113253;-74
2021/08/31 21:24:36;;;;;;;;;7.25;7.25;;;;;;;;5058060;27;111930;-75
2021/08/31 21:27:02;;;;;;;;;7.75;6.75;;;;;;;;5054688;27;115219;-74
2021/08/31 21:29:27;;;;;;;;;7.00;7.00;;;;;;;;5052657;27;111815;-75
2021/08/31 21:31:52;;;;;;;;;5.00;5.00;;;;;;;;5064634;27;112184;-75
2021/08/31 21:34:18;;;;;;;;;5.75;5.75;;;;;;;;5063144;27;112352;-74
2021/08/31 21:36:43;;;;;;;;;7.00;7.00;;;;;;;;5062123;27;112146;-74
2021/08/31 21:39:08;;;;;;;;;4.00;4.00;;;;;;;;5063731;27;112186;-75
2021/08/31 21:41:34;;;;;;;;;6.00;5.00;;;;;;;;5062814;27;112457;-74
2021/08/31 21:43:59;;;;;;;;;6.75;6.75;;;;;;;;5068201;27;111955;-76
2021/08/31 21:46:24;;;;;;;;;8.75;5.00;;;;;;;;5063246;27;112307;-82
2021/08/31 21:48:49;;;;;;;;;5.00;5.00;;;;;;;;5065453;27;111703;-79
2021/08/31 21:51:15;;;;;;;;;6.25;6.25;;;;;;;;5059814;27;112417;-78
2021/08/31 21:53:40;;;;;;;;;8.75;7.00;;;;;;;;5061843;27;112151;-78
2021/08/31 21:56:05;;;;;;;;;7.50;6.00;;;;;;;;5055977;27;112362;-78
2021/08/31 21:58:30;;;;;;;;;2.50;2.00;;;;;;;;5052983;27;112080;-78
2021/08/31 22:00:56;;;;;;;;;2.75;2.00;;;;;;;;5043252;27;112586;-78
